Bat Cave, NC (28710)

4:17 PM EDT on September 04, 2015 (GMT -0400)
Asheville Regional | | Change Station
CLOSE
Current Station
Airport
Location: Asheville,
Elevation: 2169 ft
Nearby Weather Stations

Elev 2169 ft 35.43 °N, 82.54 °W | Updated 9 minutes ago

Rain
Rain
79 °F
Feels Like 79 °F
N
7
Wind Variable Wind from South

Today
High -- | Low -- °F
--% Chance of Precip.
Yesterday
High -- | Low -- °F
Precip. -- in
7:04 AM 7:53 PM
Waning Gibbous, 56% visible
Pressure 30.07 in
Visibility 4.0 miles
Clouds Few 2900 ft
Mostly Cloudy 8000 ft
Overcast 9500 ft
Dew Point 62 °F
Humidity 56%
Rainfall 0.22 in
Snow Depth Not available.
UV 2 out of 12
Pollen 8.80 out of 12
Air Quality Not available.
Flu Activity Not available.
SPECI KAVL 042008Z 18006KT 4SM RA FEW029 BKN080 OVC095 26/17 A3007 RMK AO2 LTG DSNT N AND NE TSE1955 P0008 T02610167
Pressure 30.07 in
Visibility 4.0 miles
Clouds Few 2900 ft
Mostly Cloudy 8000 ft
Overcast 9500 ft
Dew Point 62 °F
Humidity 56%
Rainfall 0.22 in
Snow Depth Not available.
UV 2 out of 12
Pollen 8.80 out of 12
Air Quality Not available.
Flu Activity Not available.
SPECI KAVL 042008Z 18006KT 4SM RA FEW029 BKN080 OVC095 26/17 A3007 RMK AO2 LTG DSNT N AND NE TSE1955 P0008 T02610167

10-Day Weather Forecast

×

Almanac

Astronomy

Sep. 04, 2015 Rise Set
Actual Time
Civil Twilight
Nautical Twilight
Astronomical Twilight
Moon
Length of Visible Light
Length of Day
Tomorrow will be .
, % of the Moon is Illuminated

Today's Extremes

State Highs State Lows

Community

WunderPhotos

Upload Photos

1,852,273 photos uploaded!

WunderBlogs® & News

Nearby

Air Quality

  Air Quality AQ Index Pollutant
Not available.

Snow Depth

Station Depth Elevation

Earthquake Activity

City Distance Mag. Time & Date
Minimum magnitude displayed is 2.5.

Coastal Water Temperatures

Place Temperature

Stations

Nearby Weather Stations

Station Location Temp. Windchill Dew Point Humidity Wind Precip. Elev Updated Type